createdAt,value
2018-12-05T00:01:43.658Z,7.65
2018-12-05T00:04:11.970Z,6.40
2018-12-05T00:06:40.460Z,7.78
2018-12-05T00:09:08.857Z,6.30
2018-12-05T00:11:38.456Z,6.75
2018-12-05T00:16:41.642Z,7.08
2018-12-05T00:19:10.253Z,7.90
2018-12-05T00:21:38.527Z,6.72
2018-12-05T00:24:06.954Z,6.60
2018-12-05T00:26:35.300Z,7.80
2018-12-05T00:29:03.644Z,7.90
2018-12-05T00:31:31.939Z,7.08
2018-12-05T00:34:00.225Z,7.30
2018-12-05T00:36:28.556Z,8.15
2018-12-05T00:38:56.957Z,7.60
2018-12-05T00:41:25.326Z,8.25
2018-12-05T00:43:53.638Z,7.33
2018-12-05T00:46:21.936Z,7.25
2018-12-05T00:48:50.245Z,8.15
2018-12-05T00:51:18.544Z,6.20
2018-12-05T00:53:46.829Z,7.67
2018-12-05T00:56:15.170Z,7.12
2018-12-05T00:58:43.611Z,6.92
2018-12-05T01:01:11.949Z,9.53
2018-12-05T01:03:40.486Z,8.48
2018-12-05T01:06:08.865Z,6.83
2018-12-05T01:08:37.173Z,7.35
2018-12-05T01:11:05.685Z,8.33
2018-12-05T01:13:33.965Z,6.97
2018-12-05T01:16:02.285Z,7.05
2018-12-05T01:18:30.586Z,7.25
2018-12-05T01:20:58.878Z,6.67
2018-12-05T01:23:27.183Z,6.72
2018-12-05T01:25:55.816Z,8.25
2018-12-05T01:28:24.091Z,7.67
2018-12-05T01:30:58.126Z,7.85
2018-12-05T01:33:26.511Z,8.23
2018-12-05T01:35:54.780Z,8.55
2018-12-05T01:38:23.085Z,7.87
2018-12-05T01:40:51.410Z,6.92
2018-12-05T01:43:19.735Z,7.78
2018-12-05T01:45:48.210Z,7.65
2018-12-05T01:48:16.501Z,8.00
2018-12-05T01:50:44.798Z,6.87
2018-12-05T01:53:13.095Z,8.30
2018-12-05T01:55:41.411Z,7.65
2018-12-05T01:58:09.674Z,7.55
2018-12-05T02:00:38.044Z,7.20
2018-12-05T02:03:06.369Z,8.35
2018-12-05T02:05:34.687Z,8.45
2018-12-05T02:08:03.130Z,7.90
2018-12-05T02:10:31.625Z,7.70
2018-12-05T02:12:59.921Z,7.53
2018-12-05T02:15:28.228Z,8.15
2018-12-05T02:17:56.500Z,8.78
2018-12-05T02:20:24.829Z,7.85
2018-12-05T02:22:53.155Z,7.80
2018-12-05T02:25:21.419Z,7.62
2018-12-05T02:27:49.782Z,7.85
2018-12-05T02:30:18.672Z,7.53
2018-12-05T02:32:46.948Z,7.53
2018-12-05T02:35:15.291Z,8.23
2018-12-05T02:37:43.614Z,8.48
2018-12-05T02:40:11.914Z,8.73
2018-12-05T02:42:40.243Z,6.78
2018-12-05T02:45:08.716Z,7.30
2018-12-05T02:47:37.007Z,7.15
2018-12-05T02:50:05.458Z,7.50
2018-12-05T02:52:34.017Z,6.80
2018-12-05T02:55:02.376Z,7.45
2018-12-05T02:57:30.735Z,6.95
2018-12-05T02:59:59.219Z,6.15
2018-12-05T03:02:27.560Z,6.90
2018-12-05T03:04:56.046Z,7.40
2018-12-05T03:07:24.459Z,6.70
2018-12-05T03:09:52.835Z,7.33
2018-12-05T03:12:21.193Z,6.20
2018-12-05T03:14:50.251Z,7.65
2018-12-05T03:17:18.703Z,6.75
2018-12-05T03:19:47.220Z,7.47
2018-12-05T03:22:15.535Z,5.85
2018-12-05T03:24:43.871Z,7.33
2018-12-05T03:27:12.211Z,7.00
2018-12-05T03:29:40.521Z,7.33
2018-12-05T03:32:08.993Z,7.00
2018-12-05T03:34:37.560Z,6.70
2018-12-05T03:37:06.138Z,7.00
2018-12-05T03:39:34.533Z,6.75
2018-12-05T03:42:03.102Z,7.10
2018-12-05T03:44:31.521Z,6.47
2018-12-05T03:47:00.053Z,6.40
2018-12-05T03:49:28.352Z,6.10
2018-12-05T03:51:56.800Z,6.90
2018-12-05T03:54:25.221Z,6.50
2018-12-05T03:56:53.562Z,6.85
2018-12-05T03:59:21.929Z,6.83
2018-12-05T04:01:50.237Z,6.35
2018-12-05T04:04:18.635Z,6.00
2018-12-05T04:06:47.108Z,6.55
2018-12-05T04:09:15.520Z,7.97
2018-12-05T04:11:43.864Z,6.90
2018-12-05T04:14:12.316Z,6.70
2018-12-05T04:16:40.723Z,6.70
2018-12-05T04:19:09.216Z,6.25
2018-12-05T04:21:37.736Z,6.50
2018-12-05T04:24:06.075Z,6.70
2018-12-05T04:26:34.448Z,6.67
2018-12-05T04:29:02.864Z,6.58
2018-12-05T04:31:31.211Z,6.58
2018-12-05T04:33:59.553Z,6.90
2018-12-05T04:36:27.977Z,6.65
2018-12-05T04:38:56.261Z,7.25
2018-12-05T04:41:24.694Z,6.85
2018-12-05T04:43:53.119Z,7.05
2018-12-05T04:46:21.591Z,7.60
2018-12-05T04:48:50.019Z,6.33
2018-12-05T04:51:18.555Z,6.72
2018-12-05T04:53:46.934Z,8.33
2018-12-05T04:56:15.415Z,6.42
2018-12-05T04:58:43.825Z,6.33
2018-12-05T05:01:12.183Z,7.60
2018-12-05T05:03:40.655Z,6.37
2018-12-05T05:06:09.137Z,6.25
2018-12-05T05:08:37.452Z,7.03
2018-12-05T05:11:05.829Z,6.17
2018-12-05T05:13:34.285Z,6.80
2018-12-05T05:16:02.758Z,7.75
2018-12-05T05:18:31.150Z,6.70
2018-12-05T05:20:59.619Z,7.40
2018-12-05T05:23:28.110Z,7.20
2018-12-05T05:25:56.593Z,6.75
2018-12-05T05:28:25.489Z,9.35
2018-12-05T05:30:54.062Z,8.05
2018-12-05T05:33:22.391Z,8.10
2018-12-05T05:35:50.931Z,7.75
2018-12-05T05:38:19.325Z,7.42
2018-12-05T05:40:47.725Z,7.67
2018-12-05T05:43:16.166Z,6.72
2018-12-05T05:45:44.473Z,7.87
2018-12-05T05:48:12.830Z,8.80
2018-12-05T05:50:41.426Z,9.23
2018-12-05T05:53:09.785Z,9.88
2018-12-05T05:55:38.100Z,11.55
2018-12-05T05:58:06.647Z,10.40
2018-12-05T06:00:35.009Z,9.83
2018-12-05T06:03:03.406Z,10.32
2018-12-05T06:05:31.892Z,9.43
2018-12-05T06:08:00.340Z,10.85
2018-12-05T06:10:28.752Z,11.05
2018-12-05T06:12:57.731Z,10.93
2018-12-05T06:15:26.090Z,11.18
2018-12-05T06:17:54.430Z,10.90
2018-12-05T06:20:22.891Z,12.18
2018-12-05T06:22:51.215Z,11.70
2018-12-05T06:25:19.499Z,12.33
2018-12-05T06:27:48.073Z,12.00
2018-12-05T06:30:16.417Z,12.70
2018-12-05T06:32:44.751Z,11.03
2018-12-05T06:35:13.149Z,11.20
2018-12-05T06:37:41.454Z,10.93
2018-12-05T06:40:09.805Z,11.80
2018-12-05T06:42:38.084Z,12.70
2018-12-05T06:45:06.425Z,11.55
2018-12-05T06:47:34.737Z,13.60
2018-12-05T06:50:03.150Z,11.95
2018-12-05T06:52:31.498Z,12.03
2018-12-05T06:54:59.790Z,12.00
2018-12-05T06:57:28.485Z,11.45
2018-12-05T06:59:56.770Z,11.78
2018-12-05T07:02:25.058Z,11.83
2018-12-05T07:04:53.394Z,11.95
2018-12-05T07:07:21.693Z,11.75
2018-12-05T07:09:50.016Z,11.93
2018-12-05T07:12:18.387Z,12.75
2018-12-05T07:14:46.673Z,12.75
2018-12-05T07:17:14.966Z,12.20
2018-12-05T07:19:43.342Z,13.08
2018-12-05T07:22:11.661Z,11.40
2018-12-05T07:24:39.955Z,12.78
2018-12-05T07:27:08.308Z,13.90
2018-12-05T07:29:36.605Z,13.25
2018-12-05T07:32:05.878Z,14.10
2018-12-05T07:34:34.176Z,14.40
2018-12-05T07:37:02.461Z,14.38
2018-12-05T07:39:30.796Z,14.68
2018-12-05T07:41:59.188Z,14.00
2018-12-05T07:44:27.488Z,12.33
2018-12-05T07:46:55.796Z,13.43
2018-12-05T07:49:24.089Z,14.07
2018-12-05T07:51:52.476Z,14.15
2018-12-05T07:54:20.792Z,13.08
2018-12-05T07:56:49.169Z,13.30
2018-12-05T07:59:17.435Z,11.60
2018-12-05T08:01:45.776Z,11.80
2018-12-05T08:04:14.173Z,10.85
2018-12-05T08:06:42.473Z,10.10
2018-12-05T08:09:10.811Z,10.18
2018-12-05T08:11:39.159Z,10.20
2018-12-05T08:14:07.453Z,9.98
2018-12-05T08:16:35.766Z,11.25
2018-12-05T08:19:04.110Z,10.93
2018-12-05T08:21:32.406Z,11.50
2018-12-05T08:24:00.712Z,10.70
2018-12-05T08:26:29.449Z,11.33
2018-12-05T08:28:57.815Z,9.93
2018-12-05T08:31:26.395Z,11.05
2018-12-05T08:33:54.723Z,10.30
2018-12-05T08:36:23.032Z,10.68
2018-12-05T08:38:51.325Z,10.08
2018-12-05T08:41:19.670Z,9.98
2018-12-05T08:43:47.976Z,10.40
2018-12-05T08:46:16.272Z,9.67
2018-12-05T08:48:44.958Z,9.77
2018-12-05T08:51:13.342Z,9.30
2018-12-05T08:53:41.665Z,10.63
2018-12-05T08:56:10.021Z,9.00
2018-12-05T08:58:38.310Z,9.10
2018-12-05T09:01:06.648Z,13.10
2018-12-05T09:03:34.971Z,9.53
2018-12-05T09:06:03.275Z,9.47
2018-12-05T09:08:31.639Z,10.57
2018-12-05T09:11:00.337Z,9.50
2018-12-05T09:13:28.630Z,9.13
2018-12-05T09:15:56.961Z,8.40
2018-12-05T09:18:25.320Z,9.23
2018-12-05T09:20:53.605Z,10.10
2018-12-05T09:23:21.901Z,9.40
2018-12-05T09:25:50.232Z,8.80
2018-12-05T09:28:18.529Z,9.00
2018-12-05T09:30:46.947Z,9.20
2018-12-05T09:33:15.582Z,8.60
2018-12-05T09:35:43.897Z,8.97
2018-12-05T09:38:12.205Z,8.83
2018-12-05T09:40:40.575Z,8.50
2018-12-05T09:43:08.857Z,8.33
2018-12-05T09:45:37.147Z,8.53
2018-12-05T09:48:05.517Z,8.60
2018-12-05T09:50:33.825Z,8.63
2018-12-05T09:53:02.128Z,8.47
2018-12-05T09:55:30.914Z,9.00
2018-12-05T09:57:59.225Z,8.23
2018-12-05T10:00:27.560Z,9.10
2018-12-05T10:02:55.877Z,9.10
2018-12-05T10:05:24.180Z,8.67
2018-12-05T10:07:52.470Z,8.27
2018-12-05T10:10:20.874Z,9.23
2018-12-05T10:12:49.219Z,8.00
2018-12-05T10:15:17.511Z,8.97
2018-12-05T10:17:46.271Z,8.10
2018-12-05T10:20:14.588Z,8.90
2018-12-05T10:22:42.917Z,10.13
2018-12-05T10:25:11.259Z,8.47
2018-12-05T10:27:39.606Z,9.70
2018-12-05T10:30:08.573Z,9.03
2018-12-05T10:32:36.978Z,9.13
2018-12-05T10:35:05.349Z,10.50
2018-12-05T10:37:33.670Z,10.30
2018-12-05T10:40:02.124Z,8.90
2018-12-05T10:42:30.413Z,9.37
2018-12-05T10:44:58.719Z,9.70
2018-12-05T10:47:27.084Z,10.47
2018-12-05T10:49:55.383Z,9.70
2018-12-05T10:52:23.698Z,8.50
2018-12-05T10:54:52.065Z,10.40
2018-12-05T10:57:20.382Z,8.10
2018-12-05T10:59:48.703Z,9.30
2018-12-05T11:02:23.113Z,9.43
2018-12-05T11:04:56.973Z,8.83
2018-12-05T11:07:30.919Z,9.13
2018-12-05T11:10:04.575Z,10.60
2018-12-05T11:12:38.352Z,10.00
2018-12-05T11:15:12.271Z,10.00
2018-12-05T11:17:43.789Z,10.07
2018-12-05T11:20:17.487Z,10.00
2018-12-05T11:25:56.990Z,11.23
2018-12-05T11:28:25.329Z,11.60
2018-12-05T11:30:53.641Z,13.67
2018-12-05T11:33:22.064Z,11.70
2018-12-05T11:35:50.477Z,9.90
2018-12-05T11:38:18.811Z,11.50
2018-12-05T11:40:47.168Z,9.40
2018-12-05T11:43:15.540Z,9.43
2018-12-05T11:45:43.868Z,9.33
2018-12-05T11:48:12.174Z,10.07
2018-12-05T11:50:40.571Z,9.00
2018-12-05T11:53:08.893Z,9.00
2018-12-05T11:55:37.183Z,8.80
2018-12-05T11:58:05.690Z,8.27
2018-12-05T12:00:34.074Z,8.10
2018-12-05T12:03:02.407Z,9.90
2018-12-05T12:05:30.755Z,7.87
2018-12-05T12:07:59.179Z,9.10
2018-12-05T12:10:32.917Z,9.00
2018-12-05T12:13:05.729Z,9.33
2018-12-05T12:15:34.435Z,9.73
2018-12-05T12:18:02.853Z,9.10
2018-12-05T12:20:31.264Z,10.00
2018-12-05T12:22:59.702Z,9.10
2018-12-05T12:25:28.076Z,9.03
2018-12-05T12:27:56.371Z,9.50
2018-12-05T12:30:24.756Z,9.67
2018-12-05T12:32:53.103Z,9.07
2018-12-05T12:35:21.374Z,8.03
2018-12-05T12:37:49.884Z,8.10
2018-12-05T12:40:18.239Z,8.80
2018-12-05T12:42:46.608Z,8.60
2018-12-05T12:45:15.022Z,9.17
2018-12-05T12:47:43.391Z,8.23
2018-12-05T12:50:11.751Z,8.40
2018-12-05T12:52:40.184Z,8.60
2018-12-05T12:55:08.707Z,8.73
2018-12-05T12:57:37.005Z,7.87
2018-12-05T13:00:07.990Z,8.33
2018-12-05T13:02:36.323Z,8.27
2018-12-05T13:05:04.894Z,8.33
2018-12-05T13:07:33.201Z,8.23
2018-12-05T13:10:01.515Z,8.77
2018-12-05T13:12:31.890Z,9.10
2018-12-05T13:15:00.265Z,8.43
2018-12-05T13:17:28.541Z,8.07
2018-12-05T13:19:56.850Z,7.27
2018-12-05T13:22:25.403Z,8.53
2018-12-05T13:24:53.736Z,8.83
2018-12-05T13:27:22.045Z,8.10
2018-12-05T13:29:50.461Z,9.50
2018-12-05T13:32:18.807Z,8.00
2018-12-05T13:34:47.116Z,8.20
2018-12-05T13:37:15.425Z,8.30
2018-12-05T13:39:43.725Z,7.40
2018-12-05T13:42:12.107Z,7.40
2018-12-05T13:44:40.733Z,6.83
2018-12-05T13:47:09.125Z,7.57
2018-12-05T13:49:37.422Z,6.57
2018-12-05T13:52:05.821Z,8.60
2018-12-05T13:54:34.151Z,6.70
2018-12-05T13:57:02.481Z,6.23
2018-12-05T13:59:31.067Z,7.10
2018-12-05T14:01:59.378Z,7.77
2018-12-05T14:04:27.691Z,7.23
2018-12-05T14:06:56.484Z,7.33
2018-12-05T14:09:24.773Z,7.00
2018-12-05T14:11:53.064Z,7.10
2018-12-05T14:14:21.471Z,7.90
2018-12-05T14:16:49.796Z,6.43
2018-12-05T14:19:18.199Z,6.63
2018-12-05T14:21:46.606Z,7.43
2018-12-05T14:24:14.933Z,7.20
2018-12-05T14:26:43.266Z,7.60
2018-12-05T14:29:11.985Z,7.50
2018-12-05T14:31:40.301Z,6.70
2018-12-05T14:34:08.750Z,6.20
2018-12-05T14:36:37.126Z,6.47
2018-12-05T14:39:07.217Z,5.93
2018-12-05T14:41:35.553Z,6.40
2018-12-05T14:44:03.937Z,7.50
2018-12-05T14:46:32.242Z,6.70
2018-12-05T14:49:00.564Z,5.78
2018-12-05T14:51:29.022Z,5.85
2018-12-05T14:53:57.378Z,5.97
2018-12-05T14:56:25.785Z,5.90
2018-12-05T14:58:54.099Z,5.85
2018-12-05T15:01:22.409Z,7.35
2018-12-05T15:03:50.709Z,6.47
2018-12-05T15:06:19.080Z,5.55
2018-12-05T15:08:47.414Z,7.00
2018-12-05T15:11:15.739Z,9.88
2018-12-05T15:13:44.265Z,7.05
2018-12-05T15:16:12.601Z,5.70
2018-12-05T15:18:40.904Z,6.20
2018-12-05T15:21:09.268Z,4.97
2018-12-05T15:23:37.561Z,4.50
2018-12-05T15:26:05.840Z,5.75
2018-12-05T15:28:34.197Z,4.92
2018-12-05T15:31:02.547Z,6.22
2018-12-05T15:33:30.841Z,5.33
2018-12-05T15:35:59.230Z,5.15
2018-12-05T15:38:27.671Z,4.90
2018-12-05T15:40:55.981Z,4.87
2018-12-05T15:43:24.325Z,5.83
2018-12-05T15:45:52.669Z,4.40
2018-12-05T15:48:20.969Z,4.67
2018-12-05T15:50:49.319Z,5.03
2018-12-05T15:53:17.622Z,4.97
2018-12-05T15:55:46.058Z,7.95
2018-12-05T15:58:14.547Z,4.75
2018-12-05T16:00:42.833Z,5.00
2018-12-05T16:03:11.224Z,4.80
2018-12-05T16:05:39.596Z,4.20
2018-12-05T16:08:07.914Z,3.60
2018-12-05T16:10:36.237Z,4.60
2018-12-05T16:13:05.250Z,4.12
2018-12-05T16:15:33.904Z,4.30
2018-12-05T16:18:02.233Z,4.12
2018-12-05T16:20:30.618Z,4.05
2018-12-05T16:22:58.937Z,3.50
2018-12-05T16:25:27.291Z,3.85
2018-12-05T16:27:55.644Z,4.62
2018-12-05T16:30:23.946Z,3.90
2018-12-05T16:32:52.238Z,4.35
2018-12-05T16:35:20.578Z,3.87
2018-12-05T16:37:48.905Z,3.58
2018-12-05T16:40:17.192Z,3.77
2018-12-05T16:42:45.557Z,4.45
2018-12-05T16:45:13.886Z,3.40
2018-12-05T16:47:42.204Z,3.47
2018-12-05T16:50:10.625Z,3.62
2018-12-05T16:52:38.963Z,3.90
2018-12-05T16:55:07.267Z,4.60
2018-12-05T16:57:35.592Z,4.45
2018-12-05T17:00:07.332Z,4.83
2018-12-05T17:02:35.613Z,4.55
2018-12-05T17:05:05.397Z,4.70
2018-12-05T17:07:33.736Z,4.35
2018-12-05T17:10:02.166Z,4.37
2018-12-05T17:12:30.521Z,3.70
2018-12-05T17:14:58.924Z,3.30
2018-12-05T17:17:27.348Z,4.30
2018-12-05T17:19:55.668Z,3.75
2018-12-05T17:22:23.948Z,3.85
2018-12-05T17:24:52.580Z,4.10
2018-12-05T17:27:21.142Z,4.30
2018-12-05T17:29:49.433Z,4.42
2018-12-05T17:32:17.753Z,2.85
2018-12-05T17:34:46.127Z,4.10
2018-12-05T17:37:14.431Z,3.17
2018-12-05T17:39:42.707Z,3.25
2018-12-05T17:42:11.066Z,4.67
2018-12-05T17:44:39.412Z,3.98
2018-12-05T17:47:07.681Z,4.20
2018-12-05T17:49:36.181Z,3.60
2018-12-05T17:52:04.509Z,3.60
2018-12-05T17:54:32.797Z,4.40
2018-12-05T17:57:01.249Z,3.90
2018-12-05T17:59:29.555Z,3.30
2018-12-05T18:01:57.851Z,3.80
2018-12-05T18:04:26.155Z,3.42
2018-12-05T18:06:54.517Z,3.80
2018-12-05T18:09:22.871Z,4.47
2018-12-05T18:11:51.407Z,4.85
2018-12-05T18:14:19.750Z,4.00
2018-12-05T18:16:48.127Z,5.75
2018-12-05T18:19:16.457Z,4.85
2018-12-05T18:21:44.874Z,5.22
2018-12-05T18:24:13.295Z,4.05
2018-12-05T18:26:41.649Z,5.28
2018-12-05T18:29:09.966Z,4.58
2018-12-05T18:31:38.328Z,4.90
2018-12-05T18:34:06.978Z,3.85
2018-12-05T18:36:35.329Z,4.85
2018-12-05T18:39:05.622Z,4.42
2018-12-05T18:41:33.945Z,5.33
2018-12-05T18:44:02.936Z,4.78
2018-12-05T18:46:31.240Z,5.30
2018-12-05T18:48:59.582Z,4.85
2018-12-05T18:51:27.916Z,6.80
2018-12-05T18:53:56.234Z,4.65
2018-12-05T18:56:24.745Z,6.12
2018-12-05T18:58:53.053Z,5.40
2018-12-05T19:01:21.376Z,5.58
2018-12-05T19:03:49.716Z,6.05
2018-12-05T19:06:18.055Z,5.12
2018-12-05T19:08:46.377Z,7.03
2018-12-05T19:11:14.774Z,5.70
2018-12-05T19:13:48.520Z,5.92
2018-12-05T19:16:17.068Z,6.22
2018-12-05T19:18:45.519Z,6.15
2018-12-05T19:21:13.831Z,5.30
2018-12-05T19:23:42.176Z,5.95
2018-12-05T19:26:10.509Z,4.97
2018-12-05T19:28:38.795Z,5.60
2018-12-05T19:31:07.177Z,6.17
2018-12-05T19:33:35.587Z,5.33
2018-12-05T19:36:03.981Z,6.17
2018-12-05T19:38:32.396Z,6.75
2018-12-05T19:41:00.815Z,5.97
2018-12-05T19:43:29.121Z,7.10
2018-12-05T19:45:57.531Z,5.50
2018-12-05T19:48:25.941Z,6.28
2018-12-05T19:50:55.175Z,7.83
2018-12-05T19:53:23.534Z,6.20
2018-12-05T19:55:51.893Z,6.20
2018-12-05T19:58:20.298Z,6.15
2018-12-05T20:00:49.005Z,6.12
2018-12-05T20:03:17.303Z,6.45
2018-12-05T20:05:45.652Z,6.45
2018-12-05T20:08:14.017Z,6.70
2018-12-05T20:10:42.323Z,6.42
2018-12-05T20:13:10.684Z,6.42
2018-12-05T20:15:39.215Z,6.15
2018-12-05T20:18:08.392Z,6.83
2018-12-05T20:20:36.736Z,6.87
2018-12-05T20:23:05.527Z,5.75
2018-12-05T20:25:34.086Z,6.40
2018-12-05T20:28:02.379Z,6.50
2018-12-05T20:30:30.787Z,6.08
2018-12-05T20:32:59.137Z,6.80
2018-12-05T20:35:27.630Z,7.25
2018-12-05T20:37:56.317Z,7.75
2018-12-05T20:40:24.667Z,7.85
2018-12-05T20:42:53.007Z,6.97
2018-12-05T20:45:21.477Z,7.20
2018-12-05T20:47:49.783Z,6.85
2018-12-05T20:50:18.124Z,6.90
2018-12-05T20:52:46.454Z,7.72
2018-12-05T20:55:14.845Z,7.05
2018-12-05T20:57:43.268Z,7.33
2018-12-05T21:00:12.032Z,7.20
2018-12-05T21:02:40.309Z,7.42
2018-12-05T21:05:08.684Z,6.80
2018-12-05T21:07:37.096Z,6.75
2018-12-05T21:10:05.640Z,7.33
2018-12-05T21:12:33.950Z,8.63
2018-12-05T21:15:02.347Z,8.10
2018-12-05T21:17:30.706Z,7.97
2018-12-05T21:19:59.050Z,7.92
2018-12-05T21:22:27.397Z,7.00
2018-12-05T21:24:55.748Z,7.25
2018-12-05T21:27:24.500Z,6.85
2018-12-05T21:29:53.057Z,7.40
2018-12-05T21:32:21.364Z,6.60
2018-12-05T21:34:49.678Z,6.80
2018-12-05T21:37:18.016Z,7.15
2018-12-05T21:39:46.466Z,7.17
2018-12-05T21:42:14.950Z,6.40
2018-12-05T21:44:43.283Z,6.62
2018-12-05T21:47:11.599Z,6.87
2018-12-05T21:49:39.933Z,6.45
2018-12-05T21:52:08.435Z,7.15
2018-12-05T21:54:36.769Z,7.30
2018-12-05T21:57:05.208Z,7.37
2018-12-05T21:59:33.673Z,7.40
2018-12-05T22:02:01.967Z,7.33
2018-12-05T22:04:30.286Z,7.03
2018-12-05T22:06:58.613Z,7.47
2018-12-05T22:09:26.924Z,6.85
2018-12-05T22:11:55.229Z,7.17
2018-12-05T22:14:23.653Z,6.28
2018-12-05T22:16:51.977Z,6.37
2018-12-05T22:19:20.305Z,7.37
2018-12-05T22:21:48.649Z,6.15
2018-12-05T22:24:16.962Z,6.83
2018-12-05T22:26:45.280Z,6.22
2018-12-05T22:29:13.616Z,6.70
2018-12-05T22:31:41.988Z,5.83
2018-12-05T22:34:10.299Z,6.08
2018-12-05T22:36:38.754Z,6.53
2018-12-05T22:39:08.095Z,7.87
2018-12-05T22:41:36.472Z,6.55
2018-12-05T22:44:04.949Z,6.72
2018-12-05T22:46:33.261Z,6.45
2018-12-05T22:49:01.591Z,6.80
2018-12-05T22:51:29.894Z,5.92
2018-12-05T22:53:58.238Z,6.12
2018-12-05T22:56:26.568Z,6.75
2018-12-05T22:58:54.988Z,8.00
2018-12-05T23:01:23.336Z,6.83
2018-12-05T23:03:51.619Z,5.58
2018-12-05T23:06:19.958Z,6.50
2018-12-05T23:08:48.237Z,6.70
2018-12-05T23:11:16.681Z,6.20
2018-12-05T23:13:44.987Z,6.28
2018-12-05T23:16:13.312Z,6.05
2018-12-05T23:18:41.660Z,6.35
2018-12-05T23:21:10.057Z,6.60
2018-12-05T23:23:38.347Z,7.72
2018-12-05T23:26:06.682Z,6.53
2018-12-05T23:28:35.023Z,6.67
2018-12-05T23:31:03.319Z,6.85
2018-12-05T23:33:31.613Z,6.05
2018-12-05T23:35:59.941Z,6.35
2018-12-05T23:38:28.249Z,6.35
2018-12-05T23:40:56.555Z,5.58
2018-12-05T23:43:25.056Z,6.75
2018-12-05T23:45:53.325Z,6.37
2018-12-05T23:48:21.734Z,7.90
2018-12-05T23:50:50.053Z,6.90
2018-12-05T23:53:18.350Z,6.17
2018-12-05T23:55:46.717Z,7.40
2018-12-05T23:58:15.063Z,6.30
